Time;durP1;ratioP1;P1;durP2;ratioP2;P2;SDS_P1;SDS_P2;PMS_P1;PMS_P2;Temp;Humidity;BMP_temperature;BMP_pressure;BME280_temperature;BME280_humidity;BME280_pressure;Samples;Min_cycle;Max_cycle;Signal;HPM_P1;HPM_P2
2023/05/31 00:01:30;;;;;;;14.20;5.30;;;;;;;15.02;59.89;101157.92;107397;1254;97701;-59
2023/05/31 00:03:58;;;;;;;19.70;5.60;;;;;;;14.95;59.91;101157.41;107421;1254;98307;-61
2023/05/31 00:06:26;;;;;;;12.60;5.00;;;;;;;14.89;60.00;101158.52;107446;1254;111282;-61
2023/05/31 00:08:55;;;;;;;16.00;5.30;;;;;;;14.83;59.98;101159.81;107406;1254;108732;-63
2023/05/31 00:11:26;;;;;;;12.90;4.20;;;;;;;14.78;59.82;101163.99;107387;1254;108746;-59
2023/05/31 00:13:55;;;;;;;9.30;4.30;;;;;;;14.75;59.96;101166.64;107397;1254;97833;-63
2023/05/31 00:16:23;;;;;;;10.80;4.10;;;;;;;14.70;59.92;101165.42;107424;1253;97743;-59
2023/05/31 00:19:12;;;;;;;12.60;5.40;;;;;;;14.65;60.09;101172.29;107393;1254;111781;-60
2023/05/31 00:21:44;;;;;;;13.30;5.20;;;;;;;14.62;60.43;101180.32;107460;1254;110092;-60
2023/05/31 00:24:13;;;;;;;8.80;4.90;;;;;;;14.55;60.87;101177.40;107431;1254;108160;-60
2023/05/31 00:26:41;;;;;;;10.00;5.10;;;;;;;14.45;61.31;101180.87;107368;1254;97886;-60
2023/05/31 00:29:10;;;;;;;15.80;4.20;;;;;;;14.37;61.78;101184.41;107443;1254;97723;-59
2023/05/31 00:31:41;;;;;;;12.60;4.50;;;;;;;14.32;62.28;101182.70;107363;1257;111267;-59
2023/05/31 00:34:11;;;;;;;14.40;4.90;;;;;;;14.27;62.16;101184.49;107406;1253;109688;-60
2023/05/31 00:36:40;;;;;;;10.20;5.00;;;;;;;14.25;62.22;101189.13;107363;1254;107539;-58
2023/05/31 00:39:10;;;;;;;12.80;4.90;;;;;;;14.27;62.38;101188.61;107267;1254;97842;-62
2023/05/31 00:41:38;;;;;;;9.10;4.60;;;;;;;14.27;63.08;101191.33;107379;1254;97768;-59
2023/05/31 00:44:06;;;;;;;11.10;4.40;;;;;;;14.23;62.98;101188.44;107432;1254;112355;-60
2023/05/31 00:46:38;;;;;;;16.20;5.00;;;;;;;14.23;62.88;101186.84;107408;1254;108939;-61
2023/05/31 00:49:07;;;;;;;13.10;4.80;;;;;;;14.24;63.03;101185.77;107379;1254;106876;-60
2023/05/31 00:51:37;;;;;;;13.10;4.50;;;;;;;14.23;63.16;101184.78;107382;1254;97913;-59
2023/05/31 00:54:06;;;;;;;13.60;4.90;;;;;;;14.18;63.34;101179.75;107386;1254;97803;-59
2023/05/31 00:56:35;;;;;;;21.90;5.10;;;;;;;14.12;63.72;101177.66;107392;1257;111740;-60
2023/05/31 00:59:04;;;;;;;9.40;4.40;;;;;;;14.09;63.77;101173.73;107402;1254;109032;-61
2023/05/31 01:01:35;;;;;;;10.90;4.80;;;;;;;14.10;63.96;101175.30;107383;1255;107271;-61
2023/05/31 01:04:04;;;;;;;8.30;4.40;;;;;;;14.09;64.00;101176.83;107370;1254;97820;-60
2023/05/31 01:06:34;;;;;;;12.40;4.70;;;;;;;14.04;63.74;101177.23;107245;1257;98382;-60
2023/05/31 01:09:07;;;;;;;15.40;5.00;;;;;;;14.00;64.48;101176.81;107411;1254;111497;-61
2023/05/31 01:11:51;;;;;;;13.40;5.10;;;;;;;13.99;64.36;101181.22;107210;1256;108230;-61
2023/05/31 01:14:23;;;;;;;10.40;4.40;;;;;;;13.98;64.46;101181.91;107325;1254;109065;-60
2023/05/31 01:16:54;;;;;;;11.70;4.30;;;;;;;13.87;64.84;101184.48;107389;1257;97995;-61
2023/05/31 01:19:47;;;;;;;11.80;4.50;;;;;;;13.78;64.73;101187.16;107440;1254;97720;-62
2023/05/31 01:22:35;;;;;;;15.60;4.30;;;;;;;13.73;65.33;101193.41;107403;1255;111870;-59
2023/05/31 01:25:16;;;;;;;15.90;5.10;;;;;;;13.67;65.58;101192.36;107408;1254;109830;-58
2023/05/31 01:27:46;;;;;;;16.20;4.40;;;;;;;13.64;65.24;101195.16;107416;1253;107525;-60
2023/05/31 01:30:16;;;;;;;17.50;4.90;;;;;;;13.64;65.30;101197.33;107409;1257;97837;-60
2023/05/31 01:32:46;;;;;;;13.10;4.20;;;;;;;13.66;65.20;101197.55;107394;1257;98343;-60
2023/05/31 01:35:15;;;;;;;11.60;4.20;;;;;;;13.67;65.06;101200.27;107429;1254;111391;-59
2023/05/31 01:37:45;;;;;;;10.80;4.30;;;;;;;13.67;64.96;101199.50;107427;1254;109083;-59
2023/05/31 01:40:16;;;;;;;10.50;4.90;;;;;;;13.65;64.88;101205.89;107415;1254;108803;-60
2023/05/31 01:42:46;;;;;;;14.20;5.00;;;;;;;13.64;64.69;101210.82;107288;1254;97751;-62
2023/05/31 01:45:17;;;;;;;16.50;4.20;;;;;;;13.64;64.80;101215.88;107283;1254;98353;-59
2023/05/31 01:47:48;;;;;;;10.00;4.30;;;;;;;13.65;64.78;101209.65;107419;1254;111305;-60
2023/05/31 01:50:18;;;;;;;15.30;4.40;;;;;;;13.67;64.61;101210.77;107456;1253;109970;-59
2023/05/31 01:52:47;;;;;;;18.80;5.80;;;;;;;13.70;64.81;101209.41;107297;1259;108691;-60
2023/05/31 01:55:15;;;;;;;13.30;5.50;;;;;;;13.70;64.79;101214.83;107390;1254;97724;-59
2023/05/31 01:57:45;;;;;;;15.50;4.70;;;;;;;13.69;64.82;101212.03;107287;1259;97882;-61
2023/05/31 02:00:16;;;;;;;14.40;5.20;;;;;;;13.67;64.74;101210.25;107298;1254;110600;-60
2023/05/31 02:02:46;;;;;;;21.70;5.10;;;;;;;13.65;64.79;101213.64;107396;1254;109034;-60
2023/05/31 02:05:15;;;;;;;10.10;4.70;;;;;;;13.61;64.78;101218.11;107398;1254;107590;-59
2023/05/31 02:07:44;;;;;;;9.20;4.80;;;;;;;13.55;64.88;101217.12;107304;1254;97927;-60
2023/05/31 02:10:14;;;;;;;13.80;4.90;;;;;;;13.50;64.83;101218.70;107447;1254;97860;-61
2023/05/31 02:12:43;;;;;;;13.70;4.90;;;;;;;13.45;65.02;101220.87;107423;1254;110826;-59
2023/05/31 02:15:12;;;;;;;11.10;4.80;;;;;;;13.41;64.99;101223.40;107417;1254;109782;-61
2023/05/31 02:17:44;;;;;;;21.90;4.80;;;;;;;13.37;64.96;101220.70;107181;1254;107642;-61
2023/05/31 02:20:14;;;;;;;14.00;4.90;;;;;;;13.36;65.15;101220.34;107385;1254;98018;-58
2023/05/31 02:22:44;;;;;;;14.30;5.40;;;;;;;13.35;65.26;101224.75;107381;1254;97695;-59
2023/05/31 02:25:13;;;;;;;9.80;4.60;;;;;;;13.34;65.36;101227.87;107402;1255;112250;-59
2023/05/31 02:27:42;;;;;;;16.50;5.00;;;;;;;13.30;65.56;101227.78;107375;1258;109063;-59
2023/05/31 02:30:11;;;;;;;18.10;4.50;;;;;;;13.28;65.52;101228.04;107404;1254;107604;-60
2023/05/31 02:32:41;;;;;;;16.40;4.50;;;;;;;13.26;65.98;101230.21;107388;1254;97685;-60
2023/05/31 02:35:11;;;;;;;11.50;4.50;;;;;;;13.16;66.64;101233.48;107255;1254;98354;-59
2023/05/31 02:37:39;;;;;;;15.20;5.00;;;;;;;13.09;66.17;101235.91;107423;1254;111625;-58
2023/05/31 02:40:08;;;;;;;12.40;4.70;;;;;;;13.09;66.35;101236.77;107414;1254;110741;-59
2023/05/31 02:42:40;;;;;;;7.90;4.10;;;;;;;13.11;66.46;101242.95;107290;1254;107770;-60
2023/05/31 02:45:10;;;;;;;9.40;4.10;;;;;;;13.11;66.37;101247.38;107342;1255;97833;-62
2023/05/31 02:47:40;;;;;;;10.20;4.50;;;;;;;13.11;66.62;101250.99;107288;1254;97982;-64
2023/05/31 02:50:10;;;;;;;12.80;4.80;;;;;;;13.11;66.51;101252.64;107257;1254;111229;-61
2023/05/31 02:52:52;;;;;;;10.60;5.80;;;;;;;13.14;66.56;101255.95;107403;1254;108766;-62
2023/05/31 02:55:59;;;;;;;21.70;4.50;;;;;;;13.18;66.40;101255.43;107233;1257;107771;-60
2023/05/31 02:59:07;;;;;;;18.30;5.40;;;;;;;13.21;66.30;101256.83;107227;1257;97835;-61
2023/05/31 03:01:51;;;;;;;14.20;5.20;;;;;;;13.20;66.08;101254.89;107384;1254;97864;-59
2023/05/31 03:04:25;;;;;;;20.90;8.60;;;;;;;13.23;65.71;101260.17;107321;1254;111813;-60
2023/05/31 03:06:55;;;;;;;15.60;6.20;;;;;;;13.28;65.52;101268.03;107284;1254;109929;-60
2023/05/31 03:09:24;;;;;;;11.00;5.80;;;;;;;13.29;64.98;101271.36;107408;1254;108181;-59
2023/05/31 03:11:55;;;;;;;14.90;5.70;;;;;;;13.26;64.61;101270.71;107306;1258;97762;-61
2023/05/31 03:14:24;;;;;;;17.70;6.90;;;;;;;13.27;64.33;101270.52;107334;1255;97832;-60
2023/05/31 03:16:55;;;;;;;18.00;6.00;;;;;;;13.30;64.36;101271.08;107191;1256;110765;-61
2023/05/31 03:19:24;;;;;;;18.70;6.40;;;;;;;13.39;64.44;101273.69;107252;1257;108502;-59
2023/05/31 03:21:54;;;;;;;17.40;7.00;;;;;;;13.50;64.32;101276.89;107357;1258;108285;-62
2023/05/31 03:24:24;;;;;;;16.10;6.00;;;;;;;13.59;64.26;101272.59;107363;1255;97716;-59
2023/05/31 03:26:54;;;;;;;20.00;6.40;;;;;;;13.68;64.09;101270.72;107301;1257;99595;-62
2023/05/31 03:29:23;;;;;;;16.50;6.40;;;;;;;13.70;63.50;101275.90;107371;1254;112258;-61
2023/05/31 03:31:51;;;;;;;17.20;7.10;;;;;;;13.73;63.07;101282.66;107254;1255;108790;-61
2023/05/31 03:34:22;;;;;;;27.00;7.10;;;;;;;13.76;62.92;101284.30;107380;1256;108854;-62
2023/05/31 03:36:51;;;;;;;12.40;6.20;;;;;;;13.79;62.72;101279.92;107401;1254;97832;-60
2023/05/31 03:39:29;;;;;;;17.40;7.10;;;;;;;13.85;62.50;101280.83;107375;1255;97820;-59
2023/05/31 03:42:01;;;;;;;20.30;7.00;;;;;;;13.90;62.34;101280.91;107171;1257;110969;-62
2023/05/31 03:44:30;;;;;;;19.80;6.60;;;;;;;13.94;62.36;101286.80;107098;1256;108157;-60
2023/05/31 03:46:59;;;;;;;15.40;6.60;;;;;;;13.95;62.50;101285.77;107365;1254;106277;-60
2023/05/31 03:49:28;;;;;;;15.70;6.20;;;;;;;14.01;62.46;101287.02;107392;1254;97897;-60
2023/05/31 03:51:57;;;;;;;22.60;6.60;;;;;;;14.10;62.36;101286.07;107465;1254;97704;-60
2023/05/31 03:54:25;;;;;;;24.60;6.30;;;;;;;14.16;62.23;101291.23;107318;1259;111275;-60
2023/05/31 03:56:55;;;;;;;21.00;6.20;;;;;;;14.20;62.01;101293.52;107398;1254;109664;-61
2023/05/31 03:59:23;;;;;;;22.90;6.60;;;;;;;14.27;61.86;101296.35;107431;1254;107924;-60
2023/05/31 04:01:51;;;;;;;15.80;7.20;;;;;;;14.33;61.94;101297.35;107335;1257;97813;-60
2023/05/31 04:04:20;;;;;;;13.90;5.90;;;;;;;14.39;61.68;101293.74;107379;1255;97752;-60
2023/05/31 04:06:52;;;;;;;16.50;5.90;;;;;;;14.44;61.18;101297.91;107419;1258;112372;-62
2023/05/31 04:09:23;;;;;;;27.70;7.00;;;;;;;14.50;60.98;101299.88;107443;1257;109062;-62
2023/05/31 04:12:02;;;;;;;16.20;6.90;;;;;;;14.53;60.52;101299.74;107208;1254;107771;-61
2023/05/31 04:14:34;;;;;;;18.50;5.90;;;;;;;14.56;60.48;101298.05;107405;1254;97915;-63
2023/05/31 04:17:09;;;;;;;15.70;6.40;;;;;;;14.60;60.23;101301.97;107415;1254;97807;-61
2023/05/31 04:19:38;;;;;;;23.90;6.70;;;;;;;14.65;59.93;101305.66;107246;1254;110372;-61
2023/05/31 04:22:08;;;;;;;17.60;5.90;;;;;;;14.71;59.84;101304.73;107412;1254;108134;-61
2023/05/31 04:24:40;;;;;;;23.20;6.20;;;;;;;14.77;59.91;101309.02;107431;1254;108167;-61
2023/05/31 04:27:10;;;;;;;18.10;6.70;;;;;;;14.84;59.61;101308.17;107178;1254;97800;-64
2023/05/31 04:29:39;;;;;;;17.50;6.00;;;;;;;14.88;59.42;101303.79;107330;1254;97775;-65
2023/05/31 04:32:09;;;;;;;23.20;5.80;;;;;;;14.94;59.27;101305.39;107302;1254;113443;-63
2023/05/31 04:34:38;;;;;;;21.30;6.50;;;;;;;15.00;58.91;101312.23;107347;1254;109097;-62
2023/05/31 04:37:08;;;;;;;16.30;6.40;;;;;;;15.04;58.97;101316.16;107138;1254;108379;-60
2023/05/31 04:39:37;;;;;;;15.50;7.00;;;;;;;15.08;59.20;101320.98;107443;1254;97709;-59
2023/05/31 04:42:11;;;;;;;20.40;6.70;;;;;;;15.10;59.10;101320.27;107525;1254;98375;-61
2023/05/31 04:44:43;;;;;;;13.20;6.70;;;;;;;15.13;58.84;101326.31;107381;1254;110992;-63
2023/05/31 04:47:20;;;;;;;28.00;6.50;;;;;;;15.17;58.47;101322.95;107257;1254;109632;-64
2023/05/31 04:49:49;;;;;;;17.90;6.10;;;;;;;15.24;58.65;101325.40;107233;1259;108154;-63
2023/05/31 04:52:28;;;;;;;24.30;6.00;;;;;;;15.30;58.50;101332.84;107357;1257;97724;-65
2023/05/31 04:54:58;;;;;;;;;;;;;;;15.38;58.04;101333.73;107273;1256;97727;-61
2023/05/31 04:57:28;;;;;;;17.70;6.50;;;;;;;15.43;57.49;101336.89;107204;1257;111815;-59
2023/05/31 05:00:00;;;;;;;;;;;;;;;15.46;57.26;101335.09;107310;1255;110104;-61
2023/05/31 05:02:29;;;;;;;36.00;7.20;;;;;;;15.49;57.29;101331.56;107254;1257;107427;-60
2023/05/31 05:05:00;;;;;;;22.20;7.30;;;;;;;15.55;57.29;101332.40;107239;1257;97828;-62
2023/05/31 05:07:28;;;;;;;27.70;8.00;;;;;;;15.62;57.23;101333.17;107388;1256;97915;-61
2023/05/31 05:09:57;;;;;;;22.10;8.60;;;;;;;15.66;57.18;101332.19;107451;1254;110562;-60
2023/05/31 05:12:25;;;;;;;18.00;6.00;;;;;;;15.74;57.00;101331.94;107396;1257;110197;-59
2023/05/31 05:14:55;;;;;;;22.50;6.50;;;;;;;15.81;57.05;101328.94;107376;1259;109435;-60
2023/05/31 05:17:23;;;;;;;16.40;6.50;;;;;;;15.85;57.08;101328.66;107147;1255;97863;-61
2023/05/31 05:19:52;;;;;;;20.70;6.70;;;;;;;15.90;57.10;101330.52;107322;1259;97717;-61
2023/05/31 05:22:21;;;;;;;16.90;6.00;;;;;;;15.98;57.21;101328.15;107359;1256;111036;-60
2023/05/31 05:24:49;;;;;;;21.90;6.50;;;;;;;16.05;57.20;101329.52;107304;1255;109184;-60
2023/05/31 05:27:18;;;;;;;13.80;5.90;;;;;;;16.15;57.09;101335.45;107408;1257;108547;-60
2023/05/31 05:29:46;;;;;;;13.10;6.00;;;;;;;16.24;57.00;101340.94;107324;1257;97949;-61
2023/05/31 05:32:15;;;;;;;14.10;6.50;;;;;;;16.36;56.65;101341.02;107323;1257;97771;-59
2023/05/31 05:34:43;;;;;;;19.10;5.40;;;;;;;16.48;56.32;101346.31;107427;1255;112166;-61
2023/05/31 05:37:12;;;;;;;16.10;6.10;;;;;;;16.58;56.36;101336.36;107290;1256;109648;-60
2023/05/31 05:39:40;;;;;;;20.00;6.20;;;;;;;16.70;56.40;101338.41;107295;1255;105503;-62
2023/05/31 05:42:09;;;;;;;22.10;6.20;;;;;;;16.81;56.31;101340.79;107243;1257;97839;-61
2023/05/31 05:44:38;;;;;;;22.20;7.60;;;;;;;16.90;56.23;101340.23;107382;1256;97907;-60
2023/05/31 05:47:07;;;;;;;12.10;6.30;;;;;;;16.96;56.09;101343.23;107421;1257;112228;-61
2023/05/31 05:49:35;;;;;;;25.10;6.60;;;;;;;17.02;55.88;101344.00;107352;1259;110149;-61
2023/05/31 05:52:04;;;;;;;19.60;6.60;;;;;;;17.09;55.86;101346.77;107198;1255;109668;-62
2023/05/31 05:54:33;;;;;;;14.70;5.70;;;;;;;17.16;55.69;101347.25;107289;1254;97809;-61
2023/05/31 05:57:06;;;;;;;16.90;5.60;;;;;;;17.24;54.95;101341.21;107263;1256;97861;-62
2023/05/31 05:59:37;;;;;;;20.90;6.20;;;;;;;17.32;53.85;101341.20;107300;1257;111458;-63
2023/05/31 06:02:16;;;;;;;12.40;5.70;;;;;;;17.42;53.80;101343.21;107318;1257;109356;-63
2023/05/31 06:04:44;;;;;;;13.80;5.50;;;;;;;17.51;53.70;101339.52;107396;1257;107933;-63
2023/05/31 06:07:13;;;;;;;16.40;6.10;;;;;;;17.60;53.55;101340.72;107306;1254;97713;-60
2023/05/31 06:09:42;;;;;;;14.60;5.70;;;;;;;17.72;52.89;101343.27;107394;1255;97839;-62
2023/05/31 06:12:14;;;;;;;21.30;5.90;;;;;;;17.82;52.19;101344.16;107384;1257;110648;-63
2023/05/31 06:14:45;;;;;;;23.80;5.70;;;;;;;17.88;52.04;101335.52;107378;1257;109518;-64
2023/05/31 06:17:15;;;;;;;20.80;5.50;;;;;;;17.98;52.16;101342.64;107366;1254;107338;-62
2023/05/31 06:19:46;;;;;;;12.10;5.20;;;;;;;18.06;51.97;101347.90;107383;1256;97909;-61
2023/05/31 06:22:16;;;;;;;17.40;5.50;;;;;;;18.13;50.80;101349.39;107241;1257;98351;-62
2023/05/31 06:24:46;;;;;;;14.70;5.00;;;;;;;18.21;51.20;101347.54;107420;1257;112320;-62
2023/05/31 06:27:14;;;;;;;13.60;5.20;;;;;;;18.29;51.42;101346.79;107396;1255;109783;-61
2023/05/31 06:29:45;;;;;;;13.30;5.30;;;;;;;18.38;51.09;101351.00;107383;1255;108111;-61
2023/05/31 06:32:41;;;;;;;11.70;5.10;;;;;;;18.48;50.12;101351.33;107361;1259;97714;-60
2023/05/31 06:35:09;;;;;;;12.30;5.30;;;;;;;18.57;50.07;101349.94;107425;1254;97919;-59
2023/05/31 06:37:39;;;;;;;14.00;4.90;;;;;;;18.67;49.80;101348.14;107074;1257;110851;-60
2023/05/31 06:40:08;;;;;;;14.70;4.90;;;;;;;18.75;49.65;101343.88;107229;1254;109314;-61
2023/05/31 06:42:38;;;;;;;9.20;4.90;;;;;;;18.84;49.60;101344.16;107276;1257;108355;-61
2023/05/31 06:45:34;;;;;;;16.30;5.10;;;;;;;18.94;49.76;101345.40;107386;1254;97829;-61
2023/05/31 06:48:12;;;;;;;13.10;5.20;;;;;;;19.05;49.73;101351.38;107120;1257;97734;-60
2023/05/31 06:51:10;;;;;;;11.80;5.10;;;;;;;19.17;49.35;101351.86;106840;1261;112303;-60
2023/05/31 06:54:07;;;;;;;15.00;5.40;;;;;;;19.29;48.69;101357.38;107309;1254;109632;-61
2023/05/31 06:56:37;;;;;;;9.40;4.60;;;;;;;19.41;48.26;101351.35;107459;1253;108637;-62
2023/05/31 06:59:06;;;;;;;11.70;5.00;;;;;;;19.51;47.94;101358.89;107287;1254;98502;-60
2023/05/31 07:01:35;;;;;;;10.50;5.10;;;;;;;19.60;48.02;101361.24;107493;1254;98449;-60
2023/05/31 07:04:04;;;;;;;20.60;5.10;;;;;;;19.69;47.95;101359.98;107298;1253;109798;-60
2023/05/31 07:06:35;;;;;;;13.50;5.70;;;;;;;19.79;47.49;101357.14;107281;1254;109075;-61
2023/05/31 07:09:04;;;;;;;20.50;6.00;;;;;;;19.89;47.50;101355.13;107396;1254;110525;-61
2023/05/31 07:11:33;;;;;;;11.80;5.40;;;;;;;19.98;47.58;101354.17;107461;1254;97835;-60
2023/05/31 07:14:02;;;;;;;11.70;4.80;;;;;;;20.06;47.41;101348.55;107476;1254;97844;-61
2023/05/31 07:16:32;;;;;;;15.40;5.40;;;;;;;20.13;47.10;101349.67;107431;1258;112213;-61
2023/05/31 07:19:02;;;;;;;22.80;5.70;;;;;;;20.25;47.45;101348.67;107249;1254;108128;-61
2023/05/31 07:21:30;;;;;;;13.10;5.40;;;;;;;20.41;47.93;101356.36;107297;1254;108633;-61
2023/05/31 07:23:59;;;;;;;22.30;5.50;;;;;;;20.52;47.52;101357.10;107421;1254;97838;-62
2023/05/31 07:26:28;;;;;;;10.40;4.80;;;;;;;20.59;47.27;101354.15;107505;1254;98498;-63
2023/05/31 07:28:56;;;;;;;13.90;5.20;;;;;;;20.70;47.24;101353.65;107362;1254;111121;-63
2023/05/31 07:31:26;;;;;;;14.40;5.20;;;;;;;20.76;47.04;101352.16;107390;1254;109420;-61
2023/05/31 07:33:55;;;;;;;15.70;4.60;;;;;;;20.83;46.67;101348.39;107261;1254;107696;-60
2023/05/31 07:36:24;;;;;;;13.80;5.30;;;;;;;20.92;46.15;101347.11;107463;1254;97879;-62
2023/05/31 07:38:53;;;;;;;10.10;4.90;;;;;;;21.01;46.23;101343.14;107416;1254;98446;-61
2023/05/31 07:41:22;;;;;;;13.70;4.80;;;;;;;21.16;46.59;101342.52;107380;1259;111480;-59
2023/05/31 07:43:51;;;;;;;19.50;5.50;;;;;;;21.31;46.53;101335.02;107358;1256;109244;-64
2023/05/31 07:46:19;;;;;;;15.60;5.40;;;;;;;21.44;46.35;101333.52;107393;1255;107599;-61
2023/05/31 07:48:48;;;;;;;20.10;5.10;;;;;;;21.52;45.31;101336.30;107426;1257;97967;-59
2023/05/31 07:51:17;;;;;;;12.30;5.10;;;;;;;21.59;45.04;101332.76;107391;1254;97705;-60
2023/05/31 07:53:47;;;;;;;11.30;4.20;;;;;;;21.65;44.15;101334.52;107227;1260;110683;-61
2023/05/31 07:56:15;;;;;;;10.70;4.70;;;;;;;21.71;42.99;101333.45;107331;1255;110852;-60
2023/05/31 07:58:44;;;;;;;12.00;4.60;;;;;;;21.76;42.78;101328.00;107266;1258;108021;-60
2023/05/31 08:01:13;;;;;;;15.40;4.30;;;;;;;21.87;42.83;101330.80;106550;1257;1046884;-61
2023/05/31 08:03:41;;;;;;;13.90;4.50;;;;;;;22.04;43.56;101330.88;107416;1257;97931;-61
2023/05/31 08:06:10;;;;;;;12.30;4.70;;;;;;;22.19;43.49;101326.31;107371;1255;111980;-60
2023/05/31 08:08:41;;;;;;;12.90;4.90;;;;;;;22.33;42.62;101325.99;107370;1258;109040;-62
2023/05/31 08:11:10;;;;;;;8.70;4.40;;;;;;;22.46;42.11;101326.40;107270;1256;108601;-60
2023/05/31 08:13:39;;;;;;;17.00;4.90;;;;;;;22.55;42.06;101324.14;107299;1257;97066;-62
2023/05/31 08:16:08;;;;;;;11.10;4.40;;;;;;;22.66;42.35;101324.14;107309;1257;97803;-61
2023/05/31 08:18:36;;;;;;;35.30;5.30;;;;;;;22.80;42.02;101322.05;107237;1257;110346;-61
2023/05/31 08:21:05;;;;;;;14.00;4.20;;;;;;;22.93;41.99;101326.04;107327;1259;110149;-60
2023/05/31 08:23:33;;;;;;;6.70;3.90;;;;;;;23.04;41.92;101329.75;107231;1261;107770;-60
2023/05/31 08:26:05;;;;;;;14.60;4.70;;;;;;;23.11;41.40;101329.52;107370;1257;97819;-61
2023/05/31 08:28:36;;;;;;;10.00;4.10;;;;;;;23.26;41.72;101326.39;107293;1254;97830;-62
2023/05/31 08:31:07;;;;;;;9.00;4.50;;;;;;;23.44;40.88;101321.45;107266;1254;112243;-64
2023/05/31 08:33:36;;;;;;;13.00;4.80;;;;;;;23.58;40.97;101320.66;107165;1259;108762;-61
2023/05/31 08:36:04;;;;;;;10.50;4.50;;;;;;;23.73;41.33;101321.38;107411;1259;108217;-61
2023/05/31 08:38:35;;;;;;;11.90;4.00;;;;;;;23.87;40.73;101323.41;107331;1257;97854;-62
2023/05/31 08:41:12;;;;;;;11.20;4.80;;;;;;;24.03;40.34;101319.01;107366;1254;97722;-63
2023/05/31 08:43:41;;;;;;;18.90;4.60;;;;;;;24.22;39.90;101314.70;107174;1257;111297;-61
2023/05/31 08:46:11;;;;;;;11.60;3.80;;;;;;;24.38;39.76;101316.38;107232;1257;109896;-63
2023/05/31 08:48:45;;;;;;;14.30;3.50;;;;;;;24.47;39.31;101311.58;107413;1257;109216;-66
2023/05/31 08:51:15;;;;;;;14.00;4.50;;;;;;;24.59;38.59;101305.73;107434;1254;97756;-63
2023/05/31 08:53:46;;;;;;;15.80;4.20;;;;;;;24.67;38.49;101305.16;107437;1254;97876;-63
2023/05/31 08:56:15;;;;;;;10.10;4.10;;;;;;;24.75;38.51;101304.56;107416;1256;112065;-61
2023/05/31 08:58:49;;;;;;;12.50;4.10;;;;;;;24.85;38.20;101301.77;107372;1254;110657;-62
2023/05/31 09:01:20;;;;;;;8.70;3.80;;;;;;;24.96;37.69;101303.61;107477;1254;107453;-63
2023/05/31 09:03:49;;;;;;;12.20;4.00;;;;;;;25.11;37.16;101300.27;107481;1259;97816;-62
2023/05/31 09:06:17;;;;;;;6.00;3.10;;;;;;;25.25;36.21;101302.40;107504;1254;97816;-62
2023/05/31 09:08:47;;;;;;;11.70;3.50;;;;;;;25.40;35.77;101294.48;107413;1257;111937;-60
2023/05/31 09:11:17;;;;;;;17.70;4.40;;;;;;;25.47;34.91;101299.02;107400;1254;109290;-61
2023/05/31 09:13:46;;;;;;;10.50;3.50;;;;;;;25.47;35.49;101293.25;107383;1254;108302;-63
2023/05/31 09:16:14;;;;;;;15.30;4.40;;;;;;;25.76;34.83;101294.94;107428;1254;97879;-61
2023/05/31 09:18:43;;;;;;;6.30;4.10;;;;;;;26.03;34.31;101288.09;107424;1260;97711;-60
2023/05/31 09:21:13;;;;;;;19.30;6.10;;;;;;;26.27;34.20;101290.06;107416;1254;111714;-65
2023/05/31 09:23:59;;;;;;;12.10;3.90;;;;;;;26.54;34.33;101284.24;107421;1254;109769;-61
2023/05/31 09:26:28;;;;;;;12.30;4.10;;;;;;;26.89;32.27;101279.69;107427;1254;107644;-60
2023/05/31 09:28:57;;;;;;;13.10;3.60;;;;;;;27.06;32.04;101286.48;107403;1258;97720;-61
2023/05/31 09:31:27;;;;;;;13.80;3.70;;;;;;;27.29;32.36;101278.28;107397;1254;98443;-61
2023/05/31 09:33:56;;;;;;;6.90;3.90;;;;;;;27.57;31.18;101269.34;107426;1255;111904;-62
2023/05/31 09:36:26;;;;;;;10.20;3.50;;;;;;;27.81;31.01;101265.27;107456;1254;109972;-63
2023/05/31 09:39:05;;;;;;;12.80;3.60;;;;;;;28.10;30.23;101263.92;107485;1254;108720;-60
2023/05/31 09:41:33;;;;;;;9.80;4.50;;;;;;;28.31;30.20;101265.17;107447;1260;97818;-61
2023/05/31 09:44:02;;;;;;;16.30;4.80;;;;;;;28.53;30.15;101262.27;107446;1260;97813;-60
2023/05/31 09:46:31;;;;;;;7.10;3.50;;;;;;;28.60;30.02;101259.79;107450;1254;111832;-63
2023/05/31 09:49:06;;;;;;;10.90;3.50;;;;;;;28.83;29.15;101269.63;107265;1257;109418;-62
2023/05/31 09:51:36;;;;;;;21.60;3.40;;;;;;;29.10;28.48;101263.92;107193;1254;108437;-63
2023/05/31 09:54:14;;;;;;;12.80;4.00;;;;;;;29.41;28.64;101254.86;107295;1257;97957;-63
2023/05/31 09:56:43;;;;;;;12.50;4.20;;;;;;;29.84;28.27;101251.62;107299;1257;99458;-63
2023/05/31 09:59:15;;;;;;;17.90;4.40;;;;;;;30.21;28.31;101251.11;107236;1254;111738;-60
2023/05/31 10:01:44;;;;;;;8.40;3.30;;;;;;;30.57;27.78;101249.82;107501;1254;108883;-62
2023/05/31 10:04:13;;;;;;;14.70;3.70;;;;;;;30.95;27.24;101245.91;107498;1254;108120;-63
2023/05/31 10:06:44;;;;;;;14.00;3.40;;;;;;;30.83;26.86;101244.55;107432;1254;96951;-65
2023/05/31 10:09:13;;;;;;;14.10;2.90;;;;;;;30.78;26.22;101244.89;107345;1254;97924;-62
2023/05/31 10:11:50;;;;;;;15.50;3.50;;;;;;;30.66;25.80;101246.48;107390;1259;112661;-63
2023/05/31 10:14:25;;;;;;;15.30;3.60;;;;;;;31.14;25.62;101243.98;107296;1259;109627;-61
2023/05/31 10:16:56;;;;;;;6.20;2.80;;;;;;;31.78;24.04;101241.69;107368;1254;107004;-63
2023/05/31 10:19:43;;;;;;;7.20;2.60;;;;;;;32.47;23.50;101237.02;107249;1260;97827;-62
2023/05/31 10:22:15;;;;;;;18.20;3.70;;;;;;;33.11;22.75;101232.52;107294;1259;98453;-66
2023/05/31 10:24:49;;;;;;;13.50;3.20;;;;;;;33.79;22.59;101231.89;107413;1258;112287;-61
2023/05/31 10:27:38;;;;;;;10.70;3.30;;;;;;;34.24;21.12;101233.45;107362;1255;110288;-63
2023/05/31 10:30:09;;;;;;;14.60;4.40;;;;;;;34.73;20.15;101224.86;107283;1260;108916;-62
2023/05/31 10:32:48;;;;;;;8.40;2.60;;;;;;;34.91;20.36;101221.38;107311;1254;97876;-64
2023/05/31 10:35:17;;;;;;;9.10;2.90;;;;;;;35.10;19.74;101226.70;107532;1254;98481;-61
2023/05/31 10:37:53;;;;;;;10.20;3.20;;;;;;;35.44;18.85;101221.10;107476;1254;111541;-63
2023/05/31 10:40:38;;;;;;;4.10;2.50;;;;;;;35.63;18.62;101226.54;107397;1259;109528;-65
2023/05/31 10:43:26;;;;;;;14.10;2.80;;;;;;;36.17;18.08;101222.14;107351;1260;107733;-62
2023/05/31 10:46:06;;;;;;;9.90;2.30;;;;;;;36.47;17.22;101212.26;107414;1254;97813;-62
2023/05/31 10:48:51;;;;;;;8.90;2.50;;;;;;;36.61;16.69;101211.52;107505;1254;97782;-62
2023/05/31 10:51:37;;;;;;;7.90;2.40;;;;;;;36.90;17.34;101207.42;107330;1254;112346;-60
2023/05/31 10:54:05;;;;;;;9.70;3.40;;;;;;;37.30;16.67;101211.84;107414;1258;110949;-61
2023/05/31 10:56:38;;;;;;;8.50;3.00;;;;;;;37.75;16.60;101209.65;107388;1258;108462;-62
2023/05/31 10:59:17;;;;;;;8.00;2.50;;;;;;;38.05;16.38;101211.82;107440;1260;97812;-61
2023/05/31 11:01:46;;;;;;;12.60;3.10;;;;;;;38.12;16.34;101207.67;107465;1258;97813;-62
2023/05/31 11:04:25;;;;;;;5.70;2.70;;;;;;;38.20;16.60;101207.56;107279;1256;111924;-60
2023/05/31 11:07:21;;;;;;;8.00;2.40;;;;;;;38.43;16.55;101199.96;107480;1254;108490;-62
2023/05/31 11:09:58;;;;;;;8.60;3.30;;;;;;;38.85;16.44;101190.69;107350;1259;107699;-61
2023/05/31 11:12:35;;;;;;;12.10;2.80;;;;;;;39.12;16.22;101187.02;107409;1254;98639;-61
2023/05/31 11:15:05;;;;;;;12.50;2.80;;;;;;;39.27;15.34;101182.11;107289;1254;98402;-61
2023/05/31 11:17:54;;;;;;;13.50;2.60;;;;;;;39.54;15.87;101182.58;107474;1255;111440;-61
2023/05/31 11:20:26;;;;;;;11.00;2.50;;;;;;;38.88;15.49;101182.10;107414;1254;109856;-61
2023/05/31 11:23:23;;;;;;;7.40;2.80;;;;;;;38.07;15.50;101182.27;107404;1254;108644;-60
2023/05/31 11:26:20;;;;;;;10.00;2.80;;;;;;;38.14;15.76;101182.75;107244;1254;97874;-61
2023/05/31 11:28:59;;;;;;;8.70;2.80;;;;;;;38.42;15.30;101179.29;107409;1258;97749;-61